createdAt,value
2023-03-02T00:02:27.071Z,56.85
2023-03-02T00:07:36.755Z,42.00
2023-03-02T00:12:43.151Z,63.30
2023-03-02T00:17:49.424Z,38.95
2023-03-02T00:22:55.764Z,42.80
2023-03-02T00:28:02.077Z,42.50
2023-03-02T00:33:09.714Z,35.75
2023-03-02T00:38:16.529Z,33.95
2023-03-02T00:43:24.597Z,35.17
2023-03-02T00:48:30.895Z,68.55
2023-03-02T00:58:44.068Z,47.40
2023-03-02T01:03:50.628Z,82.13
2023-03-02T01:08:58.126Z,72.85
2023-03-02T01:14:04.272Z,63.00
2023-03-02T01:19:11.813Z,82.28
2023-03-02T01:24:18.220Z,63.58
2023-03-02T01:29:24.619Z,85.85
2023-03-02T01:34:31.076Z,70.20
2023-03-02T01:39:56.563Z,87.18
2023-03-02T01:45:03.589Z,80.03
2023-03-02T01:50:21.000Z,83.75
2023-03-02T01:55:33.403Z,79.15
2023-03-02T02:00:41.537Z,83.70
2023-03-02T02:06:11.643Z,78.30
2023-03-02T02:11:18.324Z,82.40
2023-03-02T02:16:30.683Z,78.53
2023-03-02T02:21:37.848Z,74.93
2023-03-02T02:26:56.622Z,68.43
2023-03-02T02:32:15.816Z,52.40
2023-03-02T02:37:27.020Z,82.65
2023-03-02T02:42:38.676Z,80.20
2023-03-02T02:47:45.420Z,49.83
2023-03-02T02:53:10.127Z,61.53
2023-03-02T02:58:42.387Z,67.47
2023-03-02T03:04:01.444Z,70.43
2023-03-02T03:09:09.961Z,83.78
2023-03-02T03:14:32.930Z,86.17
2023-03-02T03:19:39.055Z,69.90
2023-03-02T03:24:48.708Z,77.32
2023-03-02T03:29:57.318Z,91.13
2023-03-02T03:35:10.274Z,81.53
2023-03-02T03:40:17.551Z,78.25
2023-03-02T03:45:25.476Z,71.05
2023-03-02T03:50:32.207Z,67.22
2023-03-02T03:55:38.687Z,65.25
2023-03-02T04:00:44.874Z,70.45
2023-03-02T04:05:51.262Z,46.30
2023-03-02T04:10:58.050Z,53.83
2023-03-02T04:16:04.995Z,75.07
2023-03-02T04:21:11.627Z,58.35
2023-03-02T04:32:52.655Z,75.25
2023-03-02T04:38:01.078Z,59.60
2023-03-02T04:43:07.674Z,68.38
2023-03-02T04:48:14.169Z,73.00
2023-03-02T04:53:20.522Z,68.35
2023-03-02T04:58:26.877Z,63.15
2023-03-02T05:03:33.318Z,72.32
2023-03-02T05:08:39.798Z,81.20
2023-03-02T05:13:46.350Z,71.93
2023-03-02T05:18:53.006Z,75.85
2023-03-02T05:24:12.056Z,67.07
2023-03-02T05:29:18.709Z,72.18
2023-03-02T05:34:24.858Z,72.38
2023-03-02T05:39:34.315Z,74.20
2023-03-02T05:44:40.324Z,66.93
2023-03-02T05:49:49.943Z,73.20
2023-03-02T05:54:59.086Z,73.75
2023-03-02T06:00:13.807Z,64.53
2023-03-02T06:05:24.387Z,64.65
2023-03-02T06:10:31.173Z,60.97
2023-03-02T06:15:44.974Z,65.88
2023-03-02T06:39:50.149Z,66.82
2023-03-02T06:45:00.961Z,60.92
2023-03-02T06:50:07.908Z,70.22
2023-03-02T06:55:15.795Z,72.00
2023-03-02T07:00:28.485Z,71.10
2023-03-02T07:05:35.328Z,73.78
2023-03-02T07:16:32.979Z,70.78
2023-03-02T07:21:51.033Z,67.70
2023-03-02T07:27:30.005Z,26.55
2023-03-02T07:32:36.566Z,36.88
2023-03-02T07:37:43.279Z,27.08
2023-03-02T07:42:50.079Z,35.05
2023-03-02T07:47:57.606Z,30.70
2023-03-02T07:53:04.871Z,39.80
2023-03-02T07:58:11.571Z,65.28
2023-03-02T08:03:18.032Z,52.50
2023-03-02T08:08:24.813Z,59.55
2023-03-02T08:13:31.330Z,67.63
2023-03-02T08:18:38.446Z,59.42
2023-03-02T08:23:45.008Z,64.93
2023-03-02T08:28:51.680Z,68.63
2023-03-02T08:34:01.386Z,72.97
2023-03-02T08:39:11.638Z,66.05
2023-03-02T08:44:19.965Z,35.47
2023-03-02T08:49:28.656Z,25.63
2023-03-02T08:54:39.268Z,38.00
2023-03-02T08:59:48.528Z,48.15
2023-03-02T09:04:58.839Z,65.30
2023-03-02T09:10:05.825Z,36.90
2023-03-02T09:15:13.646Z,35.90
2023-03-02T09:20:20.474Z,40.58
2023-03-02T09:25:27.028Z,47.47
2023-03-02T09:30:34.349Z,36.45
2023-03-02T09:35:42.365Z,74.38
2023-03-02T09:41:15.000Z,68.72
2023-03-02T09:46:40.576Z,74.05
2023-03-02T09:52:23.261Z,76.63
2023-03-02T09:57:38.597Z,55.80
2023-03-02T10:03:16.242Z,71.53
2023-03-02T10:08:26.918Z,55.50
2023-03-02T10:13:56.870Z,75.35
2023-03-02T10:19:29.598Z,75.95
2023-03-02T10:24:42.713Z,40.28
2023-03-02T10:30:11.136Z,44.90
2023-03-02T10:35:24.747Z,53.03
2023-03-02T10:40:47.849Z,50.17
2023-03-02T10:46:06.321Z,53.00
2023-03-02T10:51:25.449Z,49.53
2023-03-02T10:56:32.630Z,43.50
2023-03-02T11:01:39.072Z,79.97
2023-03-02T11:06:45.306Z,67.72
2023-03-02T11:17:40.460Z,71.18
2023-03-02T11:23:15.203Z,50.38
2023-03-02T11:28:54.974Z,77.10
2023-03-02T11:34:19.666Z,65.93
2023-03-02T11:39:32.147Z,67.40
2023-03-02T11:44:38.542Z,61.60
2023-03-02T11:50:00.120Z,52.63
2023-03-02T11:55:16.812Z,58.67
2023-03-02T12:05:41.712Z,48.38
2023-03-02T12:11:02.014Z,75.28
2023-03-02T12:16:24.316Z,70.57
2023-03-02T12:21:42.259Z,85.80
2023-03-02T12:26:48.837Z,85.15
2023-03-02T12:31:57.803Z,71.60
2023-03-02T12:37:20.381Z,77.10
2023-03-02T12:42:42.155Z,83.32
2023-03-02T12:47:53.651Z,67.47
2023-03-02T12:53:02.869Z,85.05
2023-03-02T12:58:27.127Z,75.05
2023-03-02T13:03:35.112Z,86.22
2023-03-02T13:08:49.373Z,82.15
2023-03-02T13:14:02.682Z,89.35
2023-03-02T13:19:24.110Z,89.47
2023-03-02T13:24:57.170Z,96.68
2023-03-02T13:35:58.201Z,84.25
2023-03-02T13:41:25.898Z,86.75
2023-03-02T13:46:58.893Z,82.00
2023-03-02T13:52:30.278Z,78.10
2023-03-02T13:58:12.697Z,89.63
2023-03-02T14:09:15.629Z,86.13
2023-03-02T14:20:12.776Z,77.57
2023-03-02T14:25:23.041Z,75.82
2023-03-02T14:30:37.379Z,87.32
2023-03-02T14:35:50.238Z,76.80
2023-03-02T14:41:01.384Z,84.53
2023-03-02T14:46:48.392Z,86.60
2023-03-02T14:52:20.957Z,81.65
2023-03-02T14:57:44.834Z,61.10
2023-03-02T15:03:13.677Z,82.65
2023-03-02T15:08:26.275Z,84.43
2023-03-02T15:13:35.134Z,83.18
2023-03-02T15:18:57.776Z,86.70
2023-03-02T15:29:23.506Z,85.75
2023-03-02T15:34:43.308Z,80.38
2023-03-02T15:40:25.846Z,78.07
2023-03-02T15:45:37.782Z,81.28
2023-03-02T15:50:45.391Z,66.07
2023-03-02T15:55:55.123Z,78.00
2023-03-02T16:01:32.239Z,76.40
2023-03-02T16:06:39.152Z,71.57
2023-03-02T16:11:52.823Z,70.18
2023-03-02T16:29:28.619Z,62.60
2023-03-02T16:34:35.219Z,79.68
2023-03-02T16:39:41.527Z,74.47
2023-03-02T16:44:53.322Z,76.35
2023-03-02T16:50:00.347Z,75.78
2023-03-02T16:55:10.052Z,75.82
2023-03-02T17:00:19.431Z,64.55
2023-03-02T17:05:36.467Z,68.75
2023-03-02T17:10:43.561Z,62.50
2023-03-02T17:28:35.091Z,48.38
2023-03-02T17:33:42.004Z,64.15
2023-03-02T17:38:48.370Z,71.55
2023-03-02T17:43:54.642Z,72.85
2023-03-02T17:49:02.919Z,70.45
2023-03-02T17:54:10.577Z,78.47
2023-03-02T17:59:16.849Z,72.78
2023-03-02T18:04:23.424Z,74.55
2023-03-02T18:09:30.110Z,79.68
2023-03-02T18:14:37.893Z,78.13
2023-03-02T18:19:44.559Z,68.93
2023-03-02T18:24:52.124Z,81.07
2023-03-02T18:29:58.095Z,84.53
2023-03-02T18:35:04.423Z,85.32
2023-03-02T18:40:11.457Z,77.80
2023-03-02T18:45:26.289Z,76.22
2023-03-02T18:50:33.211Z,80.68
2023-03-02T18:55:39.609Z,77.07
2023-03-02T19:00:47.562Z,90.35
2023-03-02T19:05:57.605Z,93.03
2023-03-02T19:11:04.898Z,89.55
2023-03-02T19:16:14.195Z,90.90
2023-03-02T19:21:20.914Z,90.50
2023-03-02T19:26:27.183Z,95.20
2023-03-02T19:31:35.015Z,84.78
2023-03-02T19:36:41.405Z,97.43
2023-03-02T19:41:48.723Z,91.68
2023-03-02T19:46:55.387Z,91.80
2023-03-02T19:52:02.458Z,92.38
2023-03-02T19:57:09.833Z,94.43
2023-03-02T20:02:17.447Z,93.47
2023-03-02T20:07:23.667Z,90.72
2023-03-02T20:12:30.007Z,97.65
2023-03-02T20:17:36.566Z,99.68
2023-03-02T20:22:42.805Z,100.93
2023-03-02T20:32:59.111Z,100.03
2023-03-02T20:38:09.777Z,92.25
2023-03-02T20:43:16.530Z,94.28
2023-03-02T20:48:24.025Z,105.38
2023-03-02T20:53:31.469Z,107.00
2023-03-02T20:58:42.816Z,97.72
2023-03-02T21:03:49.250Z,96.90
2023-03-02T21:08:56.088Z,101.97
2023-03-02T21:14:03.725Z,99.85
2023-03-02T21:19:16.933Z,100.75
2023-03-02T21:24:24.518Z,103.30
2023-03-02T21:29:31.893Z,107.60
2023-03-02T21:34:38.912Z,107.65
2023-03-02T21:39:45.409Z,106.80
2023-03-02T21:49:57.158Z,103.88
2023-03-02T21:55:03.395Z,105.97
2023-03-02T22:00:11.778Z,104.00
2023-03-02T22:05:18.615Z,106.22
2023-03-02T22:10:36.716Z,96.93
2023-03-02T22:15:43.887Z,107.75
2023-03-02T22:20:54.153Z,100.97
2023-03-02T22:26:14.801Z,100.32
2023-03-02T22:31:24.064Z,101.22
2023-03-02T22:36:31.818Z,106.85
2023-03-02T22:41:38.144Z,100.53
2023-03-02T22:47:21.755Z,101.25
2023-03-02T22:52:40.033Z,100.18
2023-03-02T22:59:01.889Z,112.70
2023-03-02T23:04:28.684Z,96.82
2023-03-02T23:09:37.709Z,109.90
2023-03-02T23:14:59.107Z,120.22
2023-03-02T23:20:06.778Z,112.88
2023-03-02T23:25:44.022Z,122.53
2023-03-02T23:30:50.697Z,107.10
2023-03-02T23:35:57.497Z,110.72
2023-03-02T23:41:04.373Z,134.82
2023-03-02T23:46:15.609Z,120.57
2023-03-02T23:51:22.535Z,102.90
2023-03-02T23:56:29.126Z,116.75
